createdAt,value
2022-11-20T04:55:22.948Z,7.25
2022-11-20T04:57:53.255Z,7.60
2022-11-20T05:00:20.564Z,4.95
2022-11-20T05:02:47.923Z,5.45
2022-11-20T05:05:15.195Z,6.22
2022-11-20T05:07:42.521Z,6.20
2022-11-20T05:10:10.073Z,5.63
2022-11-20T05:12:37.426Z,6.88
2022-11-20T05:15:05.408Z,9.32
2022-11-20T05:17:32.962Z,5.50
2022-11-20T05:34:42.492Z,7.93
2022-11-20T05:37:09.751Z,8.82
2022-11-20T05:39:36.968Z,9.43
2022-11-20T05:42:23.122Z,8.07
2022-11-20T05:44:50.408Z,9.45
2022-11-20T05:47:17.730Z,8.55
2022-11-20T05:49:44.939Z,6.97
2022-11-20T05:52:12.227Z,4.78
2022-11-20T05:54:39.662Z,5.70
2022-11-20T05:57:06.871Z,6.88
2022-11-20T05:59:34.197Z,5.20
2022-11-20T06:02:01.532Z,6.53
2022-11-20T06:04:28.801Z,6.55
2022-11-20T06:09:23.488Z,5.82
2022-11-20T06:11:50.871Z,8.63
2022-11-20T06:14:18.103Z,3.97
2022-11-20T06:16:45.305Z,3.83
2022-11-20T06:19:12.589Z,7.40
2022-11-20T06:21:39.867Z,6.50
2022-11-20T06:24:09.451Z,9.80
2022-11-20T06:26:36.801Z,7.13
2022-11-20T06:29:04.129Z,7.50
2022-11-20T06:31:33.805Z,8.23
2022-11-20T06:34:01.349Z,7.90
2022-11-20T06:36:28.579Z,9.02
2022-11-20T06:38:58.426Z,8.82
2022-11-20T06:41:26.436Z,8.35
2022-11-20T06:43:53.957Z,7.45
2022-11-20T06:46:21.745Z,11.13
2022-11-20T06:48:49.992Z,9.88
2022-11-20T06:51:17.556Z,8.75
2022-11-20T06:53:44.908Z,8.25
2022-11-20T06:56:12.165Z,8.02
2022-11-20T06:58:39.461Z,8.35
2022-11-20T07:01:14.724Z,9.77
2022-11-20T07:03:42.844Z,9.50
2022-11-20T07:06:10.327Z,8.20
2022-11-20T07:08:38.009Z,10.13
2022-11-20T07:11:07.910Z,10.32
2022-11-20T07:13:35.466Z,10.50
2022-11-20T07:16:05.838Z,10.20
2022-11-20T07:18:33.498Z,10.23
2022-11-20T07:21:02.643Z,9.23
2022-11-20T07:23:29.971Z,8.98
2022-11-20T07:25:57.252Z,10.30
2022-11-20T07:28:24.527Z,9.77
2022-11-20T07:30:53.418Z,8.20
2022-11-20T07:33:21.456Z,8.95
2022-11-20T07:35:48.839Z,9.38
2022-11-20T07:38:16.114Z,7.72
2022-11-20T07:40:45.251Z,9.40
2022-11-20T07:43:12.548Z,7.72
2022-11-20T07:45:44.475Z,6.93
2022-11-20T07:48:11.858Z,6.72
2022-11-20T07:50:39.382Z,8.30
2022-11-20T07:53:09.964Z,7.57
2022-11-20T07:55:49.340Z,7.88
2022-11-20T07:58:16.781Z,6.85
2022-11-20T08:00:52.748Z,7.32
2022-11-20T08:03:24.637Z,7.10
2022-11-20T08:05:52.649Z,5.78
2022-11-20T08:08:20.115Z,6.55
2022-11-20T08:10:47.367Z,6.15
2022-11-20T08:13:33.174Z,5.18
2022-11-20T08:16:00.451Z,7.78
2022-11-20T08:18:32.450Z,4.40
2022-11-20T08:21:04.931Z,4.70
2022-11-20T08:23:32.375Z,4.50
2022-11-20T08:25:59.659Z,5.18
2022-11-20T08:28:26.991Z,5.47
2022-11-20T08:31:02.011Z,5.75
2022-11-20T08:33:35.235Z,3.95
2022-11-20T08:36:04.379Z,5.72
2022-11-20T08:38:32.191Z,4.30
2022-11-20T08:41:23.716Z,5.25
2022-11-20T08:43:52.169Z,5.88
2022-11-20T08:46:19.504Z,5.07
2022-11-20T08:48:46.998Z,4.90
2022-11-20T08:51:14.465Z,5.72
2022-11-20T08:53:42.436Z,6.75
2022-11-20T08:56:13.213Z,5.90
2022-11-20T08:59:09.986Z,6.80
2022-11-20T09:01:30.134Z,6.80
2022-11-20T09:03:58.151Z,6.67
2022-11-20T09:06:25.476Z,6.95
2022-11-20T15:46:38.290Z,30.30
2022-11-20T15:49:06.064Z,30.80
2022-11-20T15:51:42.276Z,32.17
2022-11-20T15:54:21.432Z,31.25
2022-11-20T15:56:50.554Z,33.17
2022-11-20T15:59:17.994Z,31.80
2022-11-20T16:01:45.491Z,31.77
2022-11-20T16:04:14.667Z,32.80
2022-11-20T16:06:42.610Z,32.28
2022-11-20T16:09:10.530Z,32.88
2022-11-20T16:11:38.412Z,35.67
2022-11-20T16:14:25.758Z,32.88
2022-11-20T16:19:20.831Z,35.03
2022-11-20T16:21:48.057Z,34.47
2022-11-20T16:24:16.872Z,36.13
2022-11-20T16:26:44.332Z,33.25
2022-11-20T16:29:11.638Z,36.63
2022-11-20T18:06:43.282Z,55.50
2022-11-20T18:09:11.518Z,52.92
2022-11-20T18:11:40.796Z,50.88
2022-11-20T18:14:31.222Z,55.03
2022-11-20T18:17:04.854Z,46.95
2022-11-20T18:19:37.621Z,51.38
2022-11-20T18:22:08.897Z,49.25
2022-11-20T18:24:37.255Z,48.40
2022-11-20T18:27:05.956Z,51.08
2022-11-20T18:29:33.818Z,53.90
2022-11-20T18:32:01.558Z,53.67
2022-11-20T18:34:29.123Z,46.85
2022-11-20T18:36:56.479Z,51.53
2022-11-20T18:39:24.177Z,52.25
2022-11-20T18:42:09.968Z,53.08
2022-11-20T18:44:54.820Z,54.63
2022-11-20T18:47:30.873Z,59.22
2022-11-20T18:50:00.920Z,56.78
2022-11-20T18:52:44.685Z,50.35
2022-11-20T18:55:12.932Z,51.70
2022-11-20T18:57:40.488Z,50.17
2022-11-20T19:00:09.812Z,53.00
2022-11-20T19:02:42.240Z,59.63
2022-11-20T19:05:12.192Z,52.67
2022-11-20T19:07:39.872Z,55.75
2022-11-20T19:10:08.003Z,54.10
2022-11-20T19:12:35.244Z,51.72
2022-11-20T19:15:03.068Z,55.75
2022-11-20T19:17:30.260Z,50.33
2022-11-20T19:19:57.497Z,53.63
2022-11-20T19:22:24.835Z,51.75
2022-11-20T19:24:52.072Z,55.50
2022-11-20T19:27:19.528Z,53.00
2022-11-20T19:29:46.915Z,52.08
2022-11-20T19:32:14.154Z,53.88
2022-11-20T19:34:41.666Z,52.55
2022-11-20T19:37:09.827Z,51.30
2022-11-20T19:39:37.379Z,53.38
2022-11-20T19:42:04.879Z,49.35
2022-11-20T19:44:33.165Z,51.80
2022-11-20T19:47:03.040Z,51.35
2022-11-20T19:49:31.664Z,52.45
2022-11-20T19:51:59.167Z,49.00
2022-11-20T19:54:26.798Z,52.75
2022-11-20T19:56:55.590Z,51.78
2022-11-20T19:59:23.365Z,48.88
2022-11-20T20:01:50.931Z,51.83
2022-11-20T20:04:18.778Z,52.53
2022-11-20T20:06:46.901Z,54.17
2022-11-20T20:09:14.456Z,58.03
2022-11-20T20:11:45.939Z,55.75
2022-11-20T20:14:15.924Z,53.30
2022-11-20T20:16:43.547Z,50.00
2022-11-20T20:19:15.721Z,52.03
2022-11-20T20:21:44.383Z,51.83
2022-11-20T20:24:12.112Z,53.53
2022-11-20T20:26:40.214Z,49.22
2022-11-20T20:29:07.888Z,46.50
2022-11-20T20:31:38.919Z,42.97
2022-11-20T20:34:06.557Z,45.22
2022-11-20T20:36:34.065Z,42.97
2022-11-20T20:39:02.987Z,42.67
2022-11-20T20:41:31.388Z,48.38
2022-11-20T20:44:17.326Z,47.08
2022-11-20T20:46:46.511Z,48.00
2022-11-20T20:49:14.229Z,38.92
2022-11-20T20:51:44.631Z,42.45
2022-11-20T20:54:12.319Z,42.78
2022-11-20T20:56:40.061Z,44.78
2022-11-20T20:59:07.787Z,44.22
2022-11-20T21:01:35.752Z,43.28
2022-11-20T21:40:09.025Z,37.22
2022-11-20T21:45:14.925Z,33.55
2022-11-20T21:47:59.317Z,31.40
2022-11-20T21:50:27.433Z,30.80
2022-11-20T21:53:04.021Z,31.23
2022-11-20T21:58:06.858Z,30.08
2022-11-20T22:00:37.105Z,31.52
2022-11-20T22:03:14.845Z,33.22
2022-11-20T22:05:45.001Z,29.10
2022-11-20T22:08:27.989Z,27.92
2022-11-20T22:11:13.840Z,28.42
2022-11-20T22:14:12.670Z,33.47
2022-11-20T22:16:44.972Z,31.73
2022-11-20T22:22:33.901Z,32.78
2022-11-20T22:25:30.480Z,30.25
2022-11-20T22:28:17.626Z,32.92
2022-11-20T22:30:48.445Z,34.33
2022-11-20T22:36:26.994Z,30.90
2022-11-20T22:39:08.820Z,35.80
2022-11-20T22:42:18.546Z,35.92
2022-11-20T22:44:59.172Z,33.05
2022-11-20T22:47:39.466Z,35.08
2022-11-20T22:50:21.300Z,41.85
2022-11-20T22:52:52.844Z,38.30
2022-11-20T22:55:30.064Z,40.10
2022-11-20T22:58:02.502Z,43.25
2022-11-20T23:00:48.781Z,46.13
2022-11-20T23:03:16.945Z,42.50
2022-11-20T23:11:17.047Z,46.33
2022-11-20T23:14:00.061Z,38.58
2022-11-20T23:16:48.780Z,39.63
2022-11-20T23:22:19.461Z,45.13
2022-11-20T23:27:48.989Z,43.47
2022-11-20T23:30:20.335Z,47.13
2022-11-20T23:32:49.056Z,42.63
2022-11-20T23:35:46.660Z,42.80
2022-11-20T23:38:25.774Z,40.85
